Time,TemperatureF,DewpointF,PressureIn,WindDirection,WindDirectionDegrees,WindSpeedMPH,WindSpeedGustMPH,Humidity,HourlyPrecipIn,Conditions,Clouds,dailyrainin,SoftwareType,DateUTC
2013-04-12 06:15:00,46.2,38.1,29.32,South,177,0.0,0.0,73,0.00,,---,0.00,VWS V13.01,2013-04-12 11:15:00,
2013-04-12 06:16:00,46.2,38.1,29.32,South,178,0.0,0.0,73,0.00,,---,0.00,VWS V13.01,2013-04-12 11:16:00,
2013-04-12 06:21:00,46.2,38.4,29.32,South,178,0.0,0.0,74,0.00,,---,0.00,VWS V13.01,2013-04-12 11:21:00,
2013-04-12 06:26:00,46.2,38.4,29.32,South,178,0.0,0.0,74,0.00,,---,0.00,VWS V13.01,2013-04-12 11:26:00,
2013-04-12 06:31:00,46.2,38.4,29.32,South,177,0.0,0.0,74,0.00,,---,0.00,VWS V13.01,2013-04-12 11:31:00,
2013-04-12 06:36:00,46.2,38.4,29.32,South,178,0.0,0.0,74,0.00,,---,0.00,VWS V13.01,2013-04-12 11:36:00,
2013-04-12 06:41:00,46.2,38.8,29.32,South,178,0.0,0.0,75,0.00,,---,0.00,VWS V13.01,2013-04-12 11:41:00,
2013-04-12 06:46:00,46.0,38.6,29.32,South,178,0.0,0.0,75,0.00,,---,0.00,VWS V13.01,2013-04-12 11:46:00,
2013-04-12 06:51:00,46.0,38.6,29.32,South,178,0.0,0.0,75,0.00,,---,0.00,VWS V13.01,2013-04-12 11:51:00,
2013-04-12 06:56:00,46.0,38.6,29.35,South,178,0.0,0.0,75,0.00,,---,0.00,VWS V13.01,2013-04-12 11:56:00,
2013-04-12 07:01:00,46.2,39.1,29.35,South,178,0.0,0.0,76,0.00,,---,0.00,VWS V13.01,2013-04-12 12:01:00,
2013-04-12 07:06:00,46.2,39.1,29.35,South,177,0.0,0.0,76,0.00,,---,0.00,VWS V13.01,2013-04-12 12:06:00,
2013-04-12 07:11:00,46.2,39.1,29.35,South,178,0.0,0.0,76,0.00,,---,0.00,VWS V13.01,2013-04-12 12:11:00,
2013-04-12 07:16:00,46.2,39.1,29.35,South,178,0.0,0.0,76,0.00,,---,0.00,VWS V13.01,2013-04-12 12:16:00,
2013-04-12 07:21:00,46.2,39.1,29.35,South,178,0.0,0.0,76,0.00,,---,0.00,VWS V13.01,2013-04-12 12:21:00,
2013-04-12 07:26:00,46.4,39.3,29.35,South,178,0.0,0.0,76,0.00,,---,0.00,VWS V13.01,2013-04-12 12:26:00,
2013-04-12 07:31:00,46.9,39.8,29.35,South,178,0.0,0.0,76,0.00,,---,0.00,VWS V13.01,2013-04-12 12:31:00,
2013-04-12 07:36:00,47.3,40.1,29.35,South,178,0.0,0.0,76,0.00,,---,0.00,VWS V13.01,2013-04-12 12:36:00,
2013-04-12 07:41:00,47.8,40.7,29.35,South,178,0.0,0.0,76,0.00,,---,0.00,VWS V13.01,2013-04-12 12:41:00,
2013-04-12 07:46:00,48.2,40.7,29.35,South,179,0.0,0.0,75,0.00,,---,0.00,VWS V13.01,2013-04-12 12:46:00,
2013-04-12 07:51:00,48.2,40.7,29.35,South,178,0.0,0.0,75,0.00,,---,0.00,VWS V13.01,2013-04-12 12:51:00,
2013-04-12 07:56:00,48.4,40.8,29.35,South,178,0.0,0.0,75,0.00,,---,0.00,VWS V13.01,2013-04-12 12:56:00,
2013-04-12 08:01:00,48.7,41.2,29.35,South,178,0.0,0.0,75,0.00,,---,0.00,VWS V13.01,2013-04-12 13:01:00,
2013-04-12 08:06:00,48.9,41.4,29.35,South,178,0.0,0.0,75,0.00,,---,0.00,VWS V13.01,2013-04-12 13:06:00,
2013-04-12 08:11:00,48.9,41.0,29.38,South,178,0.0,0.0,74,0.00,,---,0.00,VWS V13.01,2013-04-12 13:11:00,
2013-04-12 08:16:00,48.9,40.7,29.38,South,178,0.0,0.0,73,0.00,,---,0.00,VWS V13.01,2013-04-12 13:16:00,
2013-04-12 08:20:00,49.3,41.0,29.38,South,178,0.0,0.0,73,0.00,,---,0.00,VWS V13.01,2013-04-12 13:20:00,
2013-04-12 08:25:00,49.8,41.5,29.38,South,178,0.0,0.0,73,0.00,,---,0.00,VWS V13.01,2013-04-12 13:25:00,
2013-04-12 08:30:00,50.4,41.7,29.38,South,178,0.0,0.0,72,0.00,,---,0.00,VWS V13.01,2013-04-12 13:30:00,
2013-04-12 08:35:00,51.3,42.2,29.38,South,178,3.6,3.6,71,0.00,,---,0.00,VWS V13.01,2013-04-12 13:35:00,
2013-04-12 08:41:00,52.0,41.8,29.38,SE,145,3.6,4.0,68,0.00,,---,0.00,VWS V13.01,2013-04-12 13:41:00,
2013-04-12 08:45:00,52.9,42.6,29.38,SSE,153,0.0,0.0,68,0.00,,---,0.00,VWS V13.01,2013-04-12 13:45:00,
2013-04-12 08:50:00,53.6,42.5,29.38,SSE,152,3.6,3.6,66,0.00,,---,0.00,VWS V13.01,2013-04-12 13:50:00,
2013-04-12 08:55:00,54.1,41.4,29.38,SSE,152,4.0,4.9,62,0.00,,---,0.00,VWS V13.01,2013-04-12 13:55:00,
2013-04-12 09:01:00,54.5,41.3,29.38,SE,145,3.6,4.0,61,0.00,,---,0.00,VWS V13.01,2013-04-12 14:01:00,
2013-04-12 09:06:00,55.0,41.8,29.38,SSE,156,0.0,0.0,61,0.00,,---,0.00,VWS V13.01,2013-04-12 14:06:00,
2013-04-12 09:11:00,55.8,41.2,29.41,South,170,2.7,3.1,58,0.00,,---,0.00,VWS V13.01,2013-04-12 14:11:00,
2013-04-12 09:16:00,56.3,42.2,29.41,South,183,3.1,3.1,59,0.00,,---,0.00,VWS V13.01,2013-04-12 14:16:00,
2013-04-12 09:21:00,56.8,40.4,29.41,WSW,239,0.0,0.0,54,0.00,,---,0.00,VWS V13.01,2013-04-12 14:21:00,
2013-04-12 09:26:00,57.4,40.9,29.38,South,185,2.7,4.0,54,0.00,,---,0.00,VWS V13.01,2013-04-12 14:26:00,
2013-04-12 09:31:00,57.9,40.9,29.38,SE,129,5.8,5.8,53,0.00,,---,0.00,VWS V13.01,2013-04-12 14:31:00,
2013-04-12 09:37:00,58.6,41.1,29.38,SW,221,0.0,3.1,52,0.00,,---,0.00,VWS V13.01,2013-04-12 14:37:00,
2013-04-12 09:42:00,58.6,41.1,29.38,SW,221,0.0,0.0,52,0.00,,---,0.00,VWS V13.01,2013-04-12 14:42:00,
2013-04-12 09:47:00,59.7,40.5,29.38,SSW,192,2.7,2.7,49,0.00,,---,0.00,VWS V13.01,2013-04-12 14:47:00,
2013-04-12 09:52:00,60.4,41.2,29.38,SW,231,0.0,0.0,49,0.00,,---,0.00,VWS V13.01,2013-04-12 14:52:00,
2013-04-12 09:57:00,61.2,40.8,29.38,South,185,3.6,4.0,47,0.00,,---,0.00,VWS V13.01,2013-04-12 14:57:00,
2013-04-12 10:02:00,62.4,41.4,29.38,SW,215,2.7,2.7,46,0.00,,---,0.00,VWS V13.01,2013-04-12 15:02:00,
2013-04-12 10:07:00,62.4,41.4,29.38,SW,219,3.6,3.6,46,0.00,,---,0.00,VWS V13.01,2013-04-12 15:07:00,
2013-04-12 10:12:00,64.4,41.4,29.38,SW,222,4.9,4.9,43,0.00,,---,0.00,VWS V13.01,2013-04-12 15:12:00,
2013-04-12 10:17:00,65.7,40.0,29.38,SW,220,4.9,4.9,39,0.00,,---,0.00,VWS V13.01,2013-04-12 15:17:00,
2013-04-12 10:22:00,66.9,40.5,29.38,SW,236,5.4,5.4,38,0.00,,---,0.00,VWS V13.01,2013-04-12 15:22:00,
2013-04-12 10:27:00,67.6,41.2,29.38,WSW,251,2.7,2.7,38,0.00,,---,0.00,VWS V13.01,2013-04-12 15:27:00,
2013-04-12 10:32:00,67.6,41.2,29.38,West,264,3.6,5.8,38,0.00,,---,0.00,VWS V13.01,2013-04-12 15:32:00,
2013-04-12 10:37:00,68.5,40.5,29.38,West,277,5.4,5.4,36,0.00,,---,0.00,VWS V13.01,2013-04-12 15:37:00,
2013-04-12 10:42:00,68.9,40.9,29.38,WNW,289,4.5,5.8,36,0.00,,---,0.00,VWS V13.01,2013-04-12 15:42:00,
2013-04-12 10:47:00,69.4,40.6,29.38,NW,304,8.1,8.1,35,0.00,,---,0.00,VWS V13.01,2013-04-12 15:47:00,
2013-04-12 10:52:00,70.2,41.3,29.38,West,274,5.8,5.8,35,0.00,,---,0.00,VWS V13.01,2013-04-12 15:52:00,
2013-04-12 10:57:00,70.2,41.3,29.38,WSW,244,3.1,3.1,35,0.00,,---,0.00,VWS V13.01,2013-04-12 15:57:00,
2013-04-12 11:02:00,71.1,41.3,29.41,WSW,256,3.6,3.6,34,0.00,,---,0.00,VWS V13.01,2013-04-12 16:02:00,
2013-04-12 11:07:00,71.6,41.8,29.41,SW,233,4.9,5.4,34,0.00,,---,0.00,VWS V13.01,2013-04-12 16:07:00,
2013-04-12 11:12:00,71.6,41.8,29.41,SW,233,2.7,2.7,34,0.00,,---,0.00,VWS V13.01,2013-04-12 16:12:00,
2013-04-12 11:17:00,71.6,41.8,29.41,NNW,330,2.2,2.2,34,0.00,,---,0.00,VWS V13.01,2013-04-12 16:17:00,
2013-04-12 11:22:00,73.2,42.4,29.41,WNW,289,6.3,6.3,33,0.00,,---,0.00,VWS V13.01,2013-04-12 16:22:00,
2013-04-12 11:27:00,73.8,42.1,29.41,NW,311,3.1,3.1,32,0.00,,---,0.00,VWS V13.01,2013-04-12 16:27:00,
2013-04-12 11:32:00,73.8,42.1,29.41,SW,225,0.0,0.0,32,0.00,,---,0.00,VWS V13.01,2013-04-12 16:32:00,
2013-04-12 11:37:00,73.8,42.1,29.41,West,260,2.7,2.7,32,0.00,,---,0.00,VWS V13.01,2013-04-12 16:37:00,
2013-04-12 11:42:00,74.7,43.7,29.41,SW,223,4.9,4.9,33,0.00,,---,0.00,VWS V13.01,2013-04-12 16:42:00,
2013-04-12 11:47:00,74.7,43.7,29.41,NNW,327,4.9,4.9,33,0.00,,---,0.00,VWS V13.01,2013-04-12 16:47:00,
2013-04-12 11:52:00,74.5,42.7,29.41,NNW,329,3.1,3.1,32,0.00,,---,0.00,VWS V13.01,2013-04-12 16:52:00,
2013-04-12 11:57:00,74.5,42.7,29.41,WNW,288,3.1,3.1,32,0.00,,---,0.00,VWS V13.01,2013-04-12 16:57:00,
2013-04-12 12:02:00,74.5,42.7,29.41,SSW,196,0.0,0.0,32,0.00,,---,0.00,VWS V13.01,2013-04-12 17:02:00,
2013-04-12 12:07:00,74.5,42.7,29.41,WNW,298,2.7,2.7,32,0.00,,---,0.00,VWS V13.01,2013-04-12 17:07:00,
2013-04-12 12:12:00,74.5,42.7,29.41,WSW,246,0.0,0.0,32,0.00,,---,0.00,VWS V13.01,2013-04-12 17:12:00,
2013-04-12 12:17:00,75.2,43.3,29.41,WSW,251,3.1,3.1,32,0.00,,---,0.00,VWS V13.01,2013-04-12 17:17:00,
2013-04-12 12:22:00,75.4,42.7,29.41,WSW,251,0.0,0.0,31,0.00,,---,0.00,VWS V13.01,2013-04-12 17:22:00,
2013-04-12 12:27:00,75.4,42.7,29.41,NW,311,0.0,0.0,31,0.00,,---,0.00,VWS V13.01,2013-04-12 17:27:00,
2013-04-12 12:32:00,75.4,42.7,29.41,SW,217,3.6,3.6,31,0.00,,---,0.00,VWS V13.01,2013-04-12 17:32:00,
2013-04-12 12:38:00,76.3,43.5,29.41,SW,222,3.1,3.1,31,0.00,,---,0.00,VWS V13.01,2013-04-12 17:38:00,
2013-04-12 12:43:00,76.3,43.5,29.41,South,176,7.2,7.2,31,0.00,,---,0.00,VWS V13.01,2013-04-12 17:43:00,
2013-04-12 12:48:00,77.0,44.1,29.41,SW,214,4.9,4.9,31,0.00,,---,0.00,VWS V13.01,2013-04-12 17:48:00,
2013-04-12 12:53:00,77.0,44.1,29.41,South,190,2.7,2.7,31,0.00,,---,0.00,VWS V13.01,2013-04-12 17:53:00,
2013-04-12 12:59:00,77.4,43.5,29.41,SSE,153,4.0,4.0,30,0.00,,---,0.00,VWS V13.01,2013-04-12 17:59:00,
2013-04-12 13:04:00,77.4,43.5,29.41,West,270,0.0,4.5,30,0.00,,---,0.00,VWS V13.01,2013-04-12 18:04:00,
2013-04-12 13:09:00,77.4,43.5,29.41,West,272,0.0,0.0,30,0.00,,---,0.00,VWS V13.01,2013-04-12 18:09:00,
2013-04-12 13:14:00,77.4,43.5,29.41,WSW,249,2.7,2.7,30,0.00,,---,0.00,VWS V13.01,2013-04-12 18:14:00,
2013-04-12 13:19:00,77.2,44.2,29.41,SW,222,4.0,4.0,31,0.00,,---,0.00,VWS V13.01,2013-04-12 18:19:00,
2013-04-12 13:24:00,77.4,43.5,29.41,SSE,158,2.2,2.2,30,0.00,,---,0.00,VWS V13.01,2013-04-12 18:24:00,
2013-04-12 13:29:00,77.4,43.5,29.41,South,180,3.6,3.6,30,0.00,,---,0.00,VWS V13.01,2013-04-12 18:29:00,
2013-04-12 14:26:00,77.7,43.8,29.35,WSW,252,4.0,4.0,30,0.00,,---,0.00,VWS V13.01,2013-04-12 19:26:00,
2013-04-12 14:27:00,77.7,43.8,29.35,WSW,252,4.0,4.0,30,0.00,,---,0.00,VWS V13.01,2013-04-12 19:27:00,
2013-04-12 14:32:00,77.7,43.8,29.35,WSW,239,4.9,4.9,30,0.00,,---,0.00,VWS V13.01,2013-04-12 19:32:00,
2013-04-12 14:37:00,77.7,43.8,29.35,WNW,296,2.7,2.7,30,0.00,,---,0.00,VWS V13.01,2013-04-12 19:37:00,
2013-04-12 14:42:00,77.7,43.8,29.35,SW,226,6.3,6.3,30,0.00,,---,0.00,VWS V13.01,2013-04-12 19:42:00,
2013-04-12 14:47:00,77.7,43.8,29.35,South,172,5.4,5.4,30,0.00,,---,0.00,VWS V13.01,2013-04-12 19:47:00,
2013-04-12 14:52:00,77.0,41.4,29.35,WSW,257,0.0,0.0,28,0.00,,---,0.00,VWS V13.01,2013-04-12 19:52:00,
2013-04-12 14:57:00,77.0,41.4,29.35,West,266,3.1,5.8,28,0.00,,---,0.00,VWS V13.01,2013-04-12 19:57:00,
2013-04-12 15:02:00,76.6,42.0,29.35,South,172,5.8,5.8,29,0.00,,---,0.00,VWS V13.01,2013-04-12 20:02:00,
2013-04-12 15:07:00,76.8,42.2,29.35,WSW,241,5.4,6.3,29,0.00,,---,0.00,VWS V13.01,2013-04-12 20:07:00,
2013-04-12 15:12:00,77.0,42.3,29.35,South,180,2.2,8.1,29,0.00,,---,0.00,VWS V13.01,2013-04-12 20:12:00,
2013-04-12 15:17:00,76.6,42.0,29.35,SE,126,7.6,8.3,29,0.00,,---,0.00,VWS V13.01,2013-04-12 20:17:00,
2013-04-12 15:22:00,76.6,41.1,29.35,SSE,155,4.0,4.0,28,0.00,,---,0.00,VWS V13.01,2013-04-12 20:22:00,
2013-04-12 15:27:00,76.8,41.3,29.35,SSE,161,6.3,8.3,28,0.00,,---,0.00,VWS V13.01,2013-04-12 20:27:00,
2013-04-12 15:32:00,76.8,41.3,29.35,WSW,241,0.0,0.0,28,0.00,,---,0.00,VWS V13.01,2013-04-12 20:32:00,
2013-04-12 15:37:00,76.8,40.3,29.35,SSW,200,0.0,0.0,27,0.00,,---,0.00,VWS V13.01,2013-04-12 20:37:00,
2013-04-12 15:42:00,76.6,39.2,29.32,SE,139,3.1,8.1,26,0.00,,---,0.00,VWS V13.01,2013-04-12 20:42:00,
2013-04-12 15:47:00,76.5,40.0,29.32,ESE,117,6.3,6.7,27,0.00,,---,0.00,VWS V13.01,2013-04-12 20:47:00,
2013-04-12 15:52:00,76.5,39.1,29.32,South,172,0.0,0.0,26,0.00,,---,0.00,VWS V13.01,2013-04-12 20:52:00,
2013-04-12 15:57:00,76.3,39.9,29.32,SSE,165,5.4,5.4,27,0.00,,---,0.00,VWS V13.01,2013-04-12 20:57:00,
2013-04-12 16:02:00,76.5,39.1,29.32,SW,226,3.1,4.0,26,0.00,,---,0.00,VWS V13.01,2013-04-12 21:02:00,
2013-04-12 16:07:00,76.5,38.1,29.32,South,175,3.6,3.6,25,0.00,,---,0.00,VWS V13.01,2013-04-12 21:07:00,
2013-04-12 16:12:00,76.3,37.9,29.32,SW,233,3.1,4.0,25,0.00,,---,0.00,VWS V13.01,2013-04-12 21:12:00,
2013-04-12 16:17:00,76.5,38.1,29.32,SE,138,0.0,4.0,25,0.00,,---,0.00,VWS V13.01,2013-04-12 21:17:00,
2013-04-12 16:22:00,76.3,38.9,29.32,ESE,115,5.8,8.1,26,0.00,,---,0.00,VWS V13.01,2013-04-12 21:22:00,
2013-04-12 16:27:00,76.3,38.9,29.32,South,180,3.6,3.6,26,0.00,,---,0.00,VWS V13.01,2013-04-12 21:27:00,
2013-04-12 16:32:00,76.1,37.8,29.32,ESE,123,4.0,8.3,25,0.00,,---,0.00,VWS V13.01,2013-04-12 21:32:00,
2013-04-12 16:37:00,75.9,37.6,29.32,ESE,106,8.7,8.7,25,0.00,,---,0.00,VWS V13.01,2013-04-12 21:37:00,
2013-04-12 16:42:00,75.9,37.6,29.29,SSE,155,5.8,6.3,25,0.00,,---,0.00,VWS V13.01,2013-04-12 21:42:00,
2013-04-12 16:47:00,75.7,37.5,29.29,South,176,4.9,5.8,25,0.00,,---,0.00,VWS V13.01,2013-04-12 21:47:00,
2013-04-12 16:52:00,75.9,37.6,29.29,ESE,123,4.0,4.0,25,0.00,,---,0.00,VWS V13.01,2013-04-12 21:52:00,
2013-04-12 16:57:00,75.7,37.5,29.29,East,98,5.8,5.8,25,0.00,,---,0.00,VWS V13.01,2013-04-12 21:57:00,
2013-04-12 17:02:00,75.7,37.5,29.29,SSE,158,7.6,8.7,25,0.00,,---,0.00,VWS V13.01,2013-04-12 22:02:00,
2013-04-12 17:07:00,75.6,37.3,29.29,SE,137,8.1,8.1,25,0.00,,---,0.00,VWS V13.01,2013-04-12 22:07:00,
2013-04-12 17:12:00,75.6,37.3,29.29,SE,139,3.6,5.4,25,0.00,,---,0.00,VWS V13.01,2013-04-12 22:12:00,
2013-04-12 17:18:00,75.6,36.3,29.29,SE,128,5.4,6.3,24,0.00,,---,0.00,VWS V13.01,2013-04-12 22:18:00,
2013-04-12 17:23:00,75.6,36.3,29.29,SSE,167,4.0,4.9,24,0.00,,---,0.00,VWS V13.01,2013-04-12 22:23:00,
2013-04-12 17:28:00,75.4,36.1,29.29,SSE,161,3.6,5.8,24,0.00,,---,0.00,VWS V13.01,2013-04-12 22:28:00,
2013-04-12 17:33:00,75.4,36.1,29.29,East,93,5.8,7.6,24,0.00,,---,0.00,VWS V13.01,2013-04-12 22:33:00,
2013-04-12 17:38:00,75.2,36.0,29.29,SE,139,2.7,8.7,24,0.00,,---,0.00,VWS V13.01,2013-04-12 22:38:00,
2013-04-12 17:43:00,75.0,35.8,29.29,SE,139,3.6,3.6,24,0.00,,---,0.00,VWS V13.01,2013-04-12 22:43:00,
2013-04-12 17:48:00,75.0,36.8,29.29,SSW,211,8.1,9.2,25,0.00,,---,0.00,VWS V13.01,2013-04-12 22:48:00,
2013-04-12 17:53:00,75.0,36.8,29.29,SSE,159,8.1,8.1,25,0.00,,---,0.00,VWS V13.01,2013-04-12 22:53:00,
2013-04-12 17:57:00,75.0,36.8,29.29,SSE,154,7.6,7.6,25,0.00,,---,0.00,VWS V13.01,2013-04-12 22:57:00,
2013-04-12 18:02:00,75.0,36.8,29.29,SSE,147,3.1,3.1,25,0.00,,---,0.00,VWS V13.01,2013-04-12 23:02:00,
2013-04-12 18:07:00,74.7,37.5,29.29,South,188,3.6,3.6,26,0.00,,---,0.00,VWS V13.01,2013-04-12 23:07:00,
2013-04-12 18:12:00,74.7,37.5,29.29,SSE,159,3.6,5.4,26,0.00,,---,0.00,VWS V13.01,2013-04-12 23:12:00,
2013-04-12 18:17:00,74.1,38.0,29.29,ESE,113,4.0,4.0,27,0.00,,---,0.00,VWS V13.01,2013-04-12 23:17:00,
2013-04-12 18:22:00,74.1,38.0,29.29,SSE,157,5.8,5.8,27,0.00,,---,0.00,VWS V13.01,2013-04-12 23:22:00,
2013-04-12 18:27:00,74.1,38.0,29.29,SSE,157,5.8,5.8,27,0.00,,---,0.00,VWS V13.01,2013-04-12 23:27:00,
2013-04-12 18:32:00,74.1,38.0,29.29,South,174,3.1,3.1,27,0.00,,---,0.00,VWS V13.01,2013-04-12 23:32:00,
2013-04-12 18:37:00,74.1,38.0,29.29,SE,141,2.7,2.7,27,0.00,,---,0.00,VWS V13.01,2013-04-12 23:37:00,
2013-04-12 18:42:00,74.1,38.0,29.29,SE,139,2.7,2.7,27,0.00,,---,0.00,VWS V13.01,2013-04-12 23:42:00,
2013-04-12 18:47:00,73.4,39.2,29.29,SE,139,2.7,2.7,29,0.00,,---,0.00,VWS V13.01,2013-04-12 23:47:00,
2013-04-12 18:52:00,73.4,39.2,29.29,SE,137,5.4,5.4,29,0.00,,---,0.00,VWS V13.01,2013-04-12 23:52:00,
2013-04-12 18:57:00,73.4,39.2,29.29,SE,141,4.0,4.0,29,0.00,,---,0.00,VWS V13.01,2013-04-12 23:57:00,
2013-04-12 19:02:00,73.4,39.2,29.29,SE,141,4.0,4.0,29,0.00,,---,0.00,VWS V13.01,2013-04-13 00:02:00,
2013-04-12 19:07:00,73.4,39.2,29.29,SSE,168,2.7,2.7,29,0.00,,---,0.00,VWS V13.01,2013-04-13 00:07:00,
2013-04-12 19:12:00,73.4,39.2,29.29,SE,139,4.9,4.9,29,0.00,,---,0.00,VWS V13.01,2013-04-13 00:12:00,
2013-04-12 19:17:00,72.3,40.0,29.29,SE,137,7.6,7.6,31,0.00,,---,0.00,VWS V13.01,2013-04-13 00:17:00,
2013-04-12 19:22:00,72.3,40.0,29.29,SE,137,7.6,7.6,31,0.00,,---,0.00,VWS V13.01,2013-04-13 00:22:00,
2013-04-12 19:27:00,72.3,40.0,29.29,SE,145,0.0,7.6,31,0.00,,---,0.00,VWS V13.01,2013-04-13 00:27:00,
2013-04-12 19:32:00,72.3,40.0,29.29,SE,145,0.0,0.0,31,0.00,,---,0.00,VWS V13.01,2013-04-13 00:32:00,
2013-04-12 19:37:00,72.3,40.0,29.29,SE,145,0.0,0.0,31,0.00,,---,0.00,VWS V13.01,2013-04-13 00:37:00,
2013-04-12 19:42:00,70.9,39.6,29.29,East,91,2.7,2.7,32,0.00,,---,0.00,VWS V13.01,2013-04-13 00:42:00,
2013-04-12 19:47:00,70.9,39.6,29.29,East,91,2.7,2.7,32,0.00,,---,0.00,VWS V13.01,2013-04-13 00:47:00,
2013-04-12 19:52:00,70.5,39.3,29.29,SE,143,0.0,0.0,32,0.00,,---,0.00,VWS V13.01,2013-04-13 00:52:00,
2013-04-12 19:57:00,70.5,39.3,29.29,SE,143,0.0,0.0,32,0.00,,---,0.00,VWS V13.01,2013-04-13 00:57:00,
2013-04-12 20:02:00,70.5,39.3,29.29,ESE,118,0.0,0.0,32,0.00,,---,0.00,VWS V13.01,2013-04-13 01:02:00,
2013-04-12 20:07:00,70.5,39.3,29.29,ESE,118,0.0,0.0,32,0.00,,---,0.00,VWS V13.01,2013-04-13 01:07:00,
2013-04-12 20:13:00,69.3,39.0,29.29,ESE,112,0.0,0.0,33,0.00,,---,0.00,VWS V13.01,2013-04-13 01:13:00,
2013-04-12 20:18:00,69.3,39.0,29.29,ESE,112,0.0,0.0,33,0.00,,---,0.00,VWS V13.01,2013-04-13 01:18:00,
2013-04-12 20:23:00,69.3,39.0,29.29,ESE,116,0.0,0.0,33,0.00,,---,0.00,VWS V13.01,2013-04-13 01:23:00,